createdAt,value
2023-04-15T00:01:50.497Z,100181.09
2023-04-15T00:08:47.279Z,100182.00
2023-04-15T00:46:01.144Z,100220.28
2023-04-15T00:48:33.644Z,100220.28
2023-04-15T00:51:07.397Z,100220.28
2023-04-15T00:53:39.878Z,100221.22
2023-04-15T00:56:14.428Z,100231.81
2023-04-15T00:58:46.921Z,100232.72
2023-04-15T01:01:22.547Z,100234.47
2023-04-15T01:03:59.797Z,100234.47
2023-04-15T01:06:33.635Z,100240.63
2023-04-15T01:09:06.606Z,100241.53
2023-04-15T01:11:39.913Z,100238.03
2023-04-15T01:14:18.488Z,100245.97
2023-04-15T01:16:51.090Z,100250.47
2023-04-15T01:19:24.487Z,100253.06
2023-04-15T01:21:58.812Z,100260.16
2023-04-15T01:24:36.204Z,100265.44
2023-04-15T01:53:12.643Z,100301.84
2023-04-15T01:55:52.595Z,100303.63
2023-04-15T01:58:25.237Z,100309.84
2023-04-15T02:01:00.398Z,100320.44
2023-04-15T02:03:33.116Z,100324.00
2023-04-15T02:06:08.303Z,100317.84
2023-04-15T02:08:41.128Z,100323.16
2023-04-15T02:11:16.135Z,100330.19
2023-04-15T02:18:46.376Z,100335.59
2023-04-15T02:29:55.894Z,100354.19
2023-04-15T02:32:29.266Z,100368.31
2023-04-15T02:35:07.096Z,100363.00
2023-04-15T02:37:46.725Z,100363.94
2023-04-15T02:40:19.360Z,100362.19
2023-04-15T02:42:53.287Z,100371.06
2023-04-15T02:45:32.271Z,100371.03
2023-04-15T02:48:08.918Z,100371.06
2023-04-15T02:50:41.952Z,100375.47
2023-04-15T02:53:17.710Z,100381.69
2023-04-15T02:55:50.104Z,100386.09
2023-04-15T02:58:22.453Z,100375.53
2023-04-15T03:00:56.213Z,100387.94
2023-04-15T03:03:31.215Z,100394.09
2023-04-15T03:06:03.723Z,100398.53
2023-04-15T03:08:36.591Z,100402.97
2023-04-15T03:11:10.387Z,100402.09
2023-04-15T03:13:44.512Z,100411.81
2023-04-15T03:16:29.618Z,100410.97
2023-04-15T03:19:03.947Z,100418.97
2023-04-15T03:21:42.026Z,100422.44
2023-04-15T03:24:19.248Z,100418.97
2023-04-15T03:26:52.343Z,100425.97
2023-04-15T03:29:28.004Z,100425.13
2023-04-15T03:43:08.884Z,100447.31
2023-04-15T03:45:44.392Z,100446.41
2023-04-15T03:48:18.981Z,100456.16
2023-04-15T03:50:54.517Z,100458.81
2023-04-15T03:53:27.077Z,100470.31
2023-04-15T03:55:59.686Z,100467.66
2023-04-15T03:58:32.048Z,100475.59
2023-04-15T04:01:05.191Z,100474.75
2023-04-15T04:03:37.939Z,100486.19
2023-04-15T04:06:13.874Z,100487.13
2023-04-15T04:08:48.922Z,100489.78
2023-04-15T04:11:21.593Z,100488.91
2023-04-15T04:13:54.262Z,100488.00
2023-04-15T04:16:26.746Z,100500.44
2023-04-15T04:18:59.424Z,100506.63
2023-04-15T04:21:34.163Z,100509.28
2023-04-15T04:24:06.636Z,100512.78
2023-04-15T04:26:39.086Z,100512.78
2023-04-15T04:29:13.884Z,100518.16
2023-04-15T04:31:48.743Z,100516.38
2023-04-15T04:34:21.190Z,100523.47
2023-04-15T04:36:55.843Z,100530.53
2023-04-15T04:39:28.267Z,100534.97
2023-04-15T04:42:03.042Z,100538.47
2023-04-15T04:44:35.463Z,100544.75
2023-04-15T04:47:07.800Z,100543.81
2023-04-15T04:49:41.178Z,100552.66
2023-04-15T04:52:13.496Z,100558.84
2023-04-15T04:54:52.735Z,100560.69
2023-04-15T04:57:25.283Z,100565.97
2023-04-15T04:59:57.745Z,100571.28
2023-04-15T05:02:33.814Z,100580.09
2023-04-15T05:05:11.296Z,100578.38
2023-04-15T05:07:43.791Z,100588.94
2023-04-15T05:10:18.098Z,100590.72
2023-04-15T05:12:52.519Z,100594.28
2023-04-15T05:15:25.408Z,100610.16
2023-04-15T05:17:57.891Z,100610.16
2023-04-15T05:20:31.883Z,100619.06
2023-04-15T05:23:04.496Z,100619.06
2023-04-15T05:25:37.245Z,100626.13
2023-04-15T05:28:09.728Z,100635.84
2023-04-15T05:30:45.207Z,100642.03
2023-04-15T05:33:17.773Z,100656.16
2023-04-15T05:43:26.634Z,100684.47
2023-04-15T05:46:01.411Z,100689.78
2023-04-15T05:48:33.909Z,100688.88
2023-04-15T05:51:06.582Z,100691.56
2023-04-15T05:53:41.696Z,100705.66
2023-04-15T05:56:14.642Z,100716.25
2023-04-15T05:58:50.518Z,100715.38
2023-04-15T06:01:23.702Z,100729.50
2023-04-15T06:03:57.298Z,100735.72
2023-04-15T06:06:33.710Z,100741.00
2023-04-15T06:09:06.341Z,100749.81
2023-04-15T06:11:38.900Z,100756.03
2023-04-15T06:14:11.660Z,100760.44
2023-04-15T06:16:44.161Z,100753.44
2023-04-15T06:19:16.708Z,100759.63
2023-04-15T06:21:52.646Z,100768.41
2023-04-15T06:24:26.444Z,100764.03
2023-04-15T06:26:59.105Z,100769.31
2023-04-15T06:29:31.532Z,100778.13
2023-04-15T06:32:04.151Z,100771.13
2023-04-15T06:34:39.109Z,100778.16
2023-04-15T06:37:15.950Z,100790.53
2023-04-15T06:39:48.501Z,100796.66
2023-04-15T06:42:21.109Z,100804.59
2023-04-15T06:44:54.488Z,100803.69
2023-04-15T06:47:29.038Z,100806.34
2023-04-15T06:50:01.866Z,100816.94
2023-04-15T06:52:36.571Z,100810.72
2023-04-15T06:55:11.531Z,100824.78
2023-04-15T06:57:44.096Z,100828.38
2023-04-15T07:00:19.178Z,100836.31
2023-04-15T07:02:51.678Z,100836.31
2023-04-15T07:05:30.589Z,100851.28
2023-04-15T07:08:03.293Z,100857.53
2023-04-15T07:10:37.537Z,100869.84
2023-04-15T07:13:09.822Z,100869.84
2023-04-15T07:15:42.337Z,100873.41
2023-04-15T07:18:14.705Z,100876.06
2023-04-15T07:20:47.138Z,100884.03
2023-04-15T07:23:19.546Z,100885.75
2023-04-15T07:25:53.146Z,100888.47
2023-04-15T07:28:25.491Z,100901.72
2023-04-15T07:30:57.992Z,100900.81
2023-04-15T07:33:31.209Z,100909.66
2023-04-15T07:36:03.809Z,100908.75
2023-04-15T07:38:36.239Z,100910.53
2023-04-15T07:41:09.253Z,100918.44
2023-04-15T07:43:41.684Z,100923.75
2023-04-15T07:46:14.396Z,100929.06
2023-04-15T07:48:47.204Z,100940.50
2023-04-15T07:51:21.268Z,100929.03
2023-04-15T07:53:54.149Z,100951.09
2023-04-15T07:56:28.966Z,100951.06
2023-04-15T07:59:04.841Z,100965.19
2023-04-15T08:01:37.921Z,100973.13
2023-04-15T08:04:11.290Z,100972.25
2023-04-15T08:06:44.072Z,100974.88
2023-04-15T08:20:49.792Z,100990.78
2023-04-15T08:26:13.171Z,100991.66
2023-04-15T08:31:34.277Z,101009.28
2023-04-15T08:34:13.973Z,101011.06
2023-04-15T08:36:46.660Z,101012.78
2023-04-15T08:39:19.351Z,101014.56
2023-04-15T08:42:03.890Z,101021.59
2023-04-15T08:44:40.305Z,101027.81
2023-04-15T08:47:17.415Z,101032.22
2023-04-15T08:49:54.206Z,101041.09
2023-04-15T08:52:29.220Z,101036.63
2023-04-15T08:55:08.560Z,101039.31
2023-04-15T09:06:22.286Z,101063.09
2023-04-15T09:08:55.287Z,101069.25
2023-04-15T09:44:41.964Z,101144.25
2023-04-15T09:46:59.345Z,101162.75
2023-04-15T09:49:56.434Z,101165.41
2023-04-15T09:52:29.724Z,101171.59
2023-04-15T09:55:13.302Z,101170.69
2023-04-15T09:57:48.380Z,101171.63
2023-04-15T10:00:21.838Z,101179.53
2023-04-15T10:02:54.860Z,101179.50
2023-04-15T10:05:31.332Z,101187.41
2023-04-15T10:24:40.059Z,101212.94
2023-04-15T10:27:48.669Z,101213.75
2023-04-15T10:58:43.443Z,101258.69
2023-04-15T11:01:46.451Z,101262.19
2023-04-15T11:04:54.078Z,101256.84
2023-04-15T11:07:43.282Z,101260.31
2023-04-15T11:10:19.976Z,101262.09
2023-04-15T11:16:47.447Z,101269.97
2023-04-15T11:19:22.253Z,101272.53
2023-04-15T11:21:54.656Z,101269.00
2023-04-15T11:24:29.352Z,101273.41
2023-04-15T11:27:02.481Z,101278.72
2023-04-15T11:29:34.874Z,101276.03
2023-04-15T11:32:09.507Z,101287.47
2023-04-15T11:34:53.956Z,101292.75
2023-04-15T11:37:30.502Z,101291.84
2023-04-15T11:40:36.384Z,101288.31
2023-04-15T12:07:59.905Z,101311.97
2023-04-15T12:10:32.629Z,101315.50
2023-04-15T12:13:07.839Z,101315.50
2023-04-15T12:15:40.460Z,101321.66
2023-04-15T12:18:20.006Z,101317.28
2023-04-15T12:25:48.217Z,101324.31
2023-04-15T12:38:31.940Z,101338.31
2023-04-15T12:41:06.674Z,101339.16
2023-04-15T12:43:39.242Z,101342.66
2023-04-15T12:46:15.654Z,101347.06
2023-04-15T12:48:48.111Z,101347.06
2023-04-15T13:18:35.885Z,101384.50
2023-04-15T13:21:08.288Z,101375.66
2023-04-15T13:23:43.685Z,101383.53
2023-04-15T13:26:19.170Z,101385.28
2023-04-15T13:28:53.131Z,101386.09
2023-04-15T13:31:27.413Z,101385.97
2023-04-15T13:34:02.770Z,101378.81
2023-04-15T13:36:36.438Z,101382.19
2023-04-15T14:03:34.987Z,101405.72
2023-04-15T14:06:07.614Z,101416.31
2023-04-15T14:08:44.229Z,101426.97
2023-04-15T14:30:41.199Z,101431.34
2023-04-15T14:33:14.883Z,101436.81
2023-04-15T14:35:47.577Z,101435.94
2023-04-15T14:38:22.678Z,101441.31
2023-04-15T14:40:55.368Z,101437.84
2023-04-15T14:43:34.748Z,101450.22
2023-04-15T15:00:18.589Z,101450.06
2023-04-15T15:10:16.242Z,101460.94
2023-04-15T15:12:48.678Z,101463.31
2023-04-15T15:15:28.959Z,101467.22
2023-04-15T15:18:09.083Z,101465.75
2023-04-15T15:20:43.594Z,101464.22
2023-04-15T15:23:16.106Z,101466.16
2023-04-15T15:25:48.449Z,101465.38
2023-04-15T15:28:21.940Z,101467.19
2023-04-15T15:30:54.243Z,101471.13
2023-04-15T15:33:32.029Z,101465.75
2023-04-15T15:36:04.583Z,101463.53
2023-04-15T15:38:37.097Z,101467.47
2023-04-15T15:41:09.429Z,101475.66
2023-04-15T15:43:42.064Z,101476.34
2023-04-15T15:46:14.821Z,101490.03
2023-04-15T15:48:47.259Z,101492.25
2023-04-15T15:51:21.032Z,101491.97
2023-04-15T15:53:53.584Z,101498.84
2023-04-15T15:56:27.029Z,101504.78
2023-04-15T15:59:02.611Z,101501.97
2023-04-15T16:01:38.138Z,101507.78
2023-04-15T16:04:10.985Z,101502.84
2023-04-15T16:06:45.059Z,101502.38
2023-04-15T16:19:13.985Z,101520.53
2023-04-15T16:30:04.711Z,101530.56
2023-04-15T16:32:39.720Z,101532.53
2023-04-15T16:35:14.620Z,101541.69
2023-04-15T16:37:49.106Z,101540.22
2023-04-15T16:40:21.502Z,101536.94
2023-04-15T16:42:56.340Z,101542.53
2023-04-15T16:45:28.752Z,101549.91
2023-04-15T16:48:01.264Z,101548.41
2023-04-15T16:50:33.990Z,101554.88
2023-04-15T16:53:06.980Z,101548.91
2023-04-15T16:55:40.121Z,101556.25
2023-04-15T16:58:13.464Z,101560.91
2023-04-15T17:00:46.215Z,101554.06
2023-04-15T17:03:18.769Z,101565.84
2023-04-15T17:05:51.392Z,101559.84
2023-04-15T17:08:23.871Z,101571.59
2023-04-15T17:10:57.921Z,101574.47
2023-04-15T17:24:53.664Z,101606.56
2023-04-15T17:27:28.791Z,101604.09
2023-04-15T17:30:03.502Z,101616.66
2023-04-15T17:32:36.164Z,101624.81
2023-04-15T17:35:11.954Z,101625.88
2023-04-15T17:37:46.109Z,101627.78
2023-04-15T17:40:21.379Z,101628.84
2023-04-15T17:42:54.001Z,101629.84
2023-04-15T17:45:26.575Z,101642.47
2023-04-15T17:48:03.609Z,101645.31
2023-04-15T18:06:14.113Z,101654.31
2023-04-15T18:08:46.627Z,101665.13
2023-04-15T18:11:27.673Z,101659.00
2023-04-15T18:14:04.954Z,101660.00
2023-04-15T18:16:40.552Z,101655.69
2023-04-15T18:19:18.489Z,101662.84
2023-04-15T18:21:53.367Z,101666.53
2023-04-15T18:24:28.364Z,101671.94
2023-04-15T18:27:03.812Z,101667.59
2023-04-15T19:16:05.279Z,101702.50
2023-04-15T19:18:42.450Z,101706.09
2023-04-15T19:36:07.146Z,101715.22
2023-04-15T19:43:35.917Z,101732.00
2023-04-15T19:50:41.845Z,101735.66
2023-04-15T20:00:44.388Z,101756.16
2023-04-15T20:29:37.803Z,101791.78
2023-04-15T20:32:11.924Z,101803.31
2023-04-15T20:34:47.417Z,101796.22
2023-04-15T20:37:20.445Z,101797.16
2023-04-15T20:39:53.005Z,101798.91
2023-04-15T20:42:28.927Z,101805.13
2023-04-15T20:52:14.803Z,101816.69
2023-04-15T20:54:47.290Z,101822.00
2023-04-15T20:57:20.950Z,101819.34
2023-04-15T20:59:53.429Z,101820.25
2023-04-15T21:02:29.777Z,101817.63
2023-04-15T21:05:02.583Z,101829.13
2023-04-15T21:07:36.608Z,101826.47
2023-04-15T21:23:13.008Z,101839.81
2023-04-15T21:25:45.765Z,101836.31
2023-04-15T21:28:18.166Z,101836.31
2023-04-15T21:30:51.007Z,101837.22
2023-04-15T21:33:23.916Z,101842.50
2023-04-15T21:35:58.878Z,101832.78
2023-04-15T21:38:34.254Z,101840.78
2023-04-15T21:41:10.653Z,101851.41
2023-04-15T21:43:45.461Z,101848.75
2023-04-15T21:46:23.203Z,101841.69
2023-04-15T21:48:57.774Z,101844.34
2023-04-15T21:51:32.942Z,101847.88
2023-04-15T21:54:06.648Z,101843.47
2023-04-15T21:56:46.621Z,101837.31
2023-04-15T21:59:21.355Z,101844.38
2023-04-15T22:02:14.225Z,101853.25
2023-04-15T22:04:46.830Z,101857.66
2023-04-15T22:07:22.659Z,101842.63
2023-04-15T22:13:36.643Z,101861.25
2023-04-15T22:16:09.575Z,101866.56
2023-04-15T22:18:45.346Z,101866.56
2023-04-15T22:21:18.977Z,101862.13
2023-04-15T22:23:52.229Z,101870.09
2023-04-15T22:26:27.726Z,101869.22
2023-04-15T22:29:00.135Z,101872.78
2023-04-15T22:31:40.752Z,101868.31
2023-04-15T22:34:20.774Z,101878.97
2023-04-15T23:11:00.210Z,101878.16
2023-04-15T23:13:34.193Z,101880.81
2023-04-15T23:16:07.106Z,101889.69
2023-04-15T23:18:39.636Z,101891.47
2023-04-15T23:21:13.415Z,101894.13
2023-04-15T23:23:49.386Z,101899.44
2023-04-15T23:26:21.773Z,101895.03
2023-04-15T23:28:58.816Z,101895.03
2023-04-15T23:31:31.529Z,101892.38
2023-04-15T23:34:06.215Z,101896.78
2023-04-15T23:36:38.688Z,101892.38
2023-04-15T23:39:11.623Z,101887.06
2023-04-15T23:41:44.166Z,101895.03
2023-04-15T23:44:16.636Z,101892.38
2023-04-15T23:46:56.646Z,101892.38
2023-04-15T23:49:36.745Z,101904.75
2023-04-15T23:52:11.660Z,101903.00
2023-04-15T23:54:44.052Z,101897.69
2023-04-15T23:57:21.057Z,101903.00
